sensor_id;sensor_type;location;lat;lon;timestamp;P1;durP1;ratioP1;P2;durP2;ratioP2
74974;SDS011;68459;50.836;19.138;2023-08-12T00:02:57;13.27;;;6.72;;
74974;SDS011;68459;50.836;19.138;2023-08-12T00:06:01;8.23;;;6.00;;
74974;SDS011;68459;50.836;19.138;2023-08-12T00:09:07;11.77;;;6.70;;
74974;SDS011;68459;50.836;19.138;2023-08-12T00:12:12;9.25;;;6.30;;
74974;SDS011;68459;50.836;19.138;2023-08-12T00:15:16;14.13;;;6.87;;
74974;SDS011;68459;50.836;19.138;2023-08-12T00:18:23;12.55;;;7.30;;
74974;SDS011;68459;50.836;19.138;2023-08-12T00:21:27;9.85;;;7.03;;
74974;SDS011;68459;50.836;19.138;2023-08-12T00:24:30;8.82;;;6.15;;
74974;SDS011;68459;50.836;19.138;2023-08-12T00:27:35;8.82;;;6.10;;
74974;SDS011;68459;50.836;19.138;2023-08-12T00:30:39;12.57;;;6.78;;
74974;SDS011;68459;50.836;19.138;2023-08-12T00:33:44;9.80;;;6.78;;
74974;SDS011;68459;50.836;19.138;2023-08-12T00:36:48;14.53;;;6.93;;
74974;SDS011;68459;50.836;19.138;2023-08-12T00:39:53;13.45;;;7.63;;
74974;SDS011;68459;50.836;19.138;2023-08-12T00:42:57;12.77;;;7.20;;
74974;SDS011;68459;50.836;19.138;2023-08-12T00:46:01;14.17;;;7.93;;
74974;SDS011;68459;50.836;19.138;2023-08-12T00:49:08;10.95;;;7.47;;
74974;SDS011;68459;50.836;19.138;2023-08-12T00:52:14;20.15;;;8.23;;
74974;SDS011;68459;50.836;19.138;2023-08-12T00:55:20;14.32;;;8.73;;
74974;SDS011;68459;50.836;19.138;2023-08-12T00:58:25;12.25;;;8.23;;
74974;SDS011;68459;50.836;19.138;2023-08-12T01:01:29;14.40;;;8.32;;
74974;SDS011;68459;50.836;19.138;2023-08-12T01:04:35;15.07;;;8.52;;
74974;SDS011;68459;50.836;19.138;2023-08-12T01:07:39;14.20;;;8.23;;
74974;SDS011;68459;50.836;19.138;2023-08-12T01:10:44;13.48;;;8.60;;
74974;SDS011;68459;50.836;19.138;2023-08-12T01:13:57;14.98;;;8.52;;
74974;SDS011;68459;50.836;19.138;2023-08-12T01:17:06;11.97;;;7.60;;
74974;SDS011;68459;50.836;19.138;2023-08-12T01:20:16;14.50;;;7.85;;
74974;SDS011;68459;50.836;19.138;2023-08-12T01:23:21;14.77;;;7.75;;
74974;SDS011;68459;50.836;19.138;2023-08-12T01:26:26;11.85;;;8.02;;
74974;SDS011;68459;50.836;19.138;2023-08-12T01:29:30;13.55;;;7.43;;
74974;SDS011;68459;50.836;19.138;2023-08-12T01:32:36;13.45;;;7.80;;
74974;SDS011;68459;50.836;19.138;2023-08-12T01:35:48;10.73;;;6.95;;
74974;SDS011;68459;50.836;19.138;2023-08-12T01:38:59;13.73;;;7.60;;
74974;SDS011;68459;50.836;19.138;2023-08-12T01:42:06;12.82;;;7.70;;
74974;SDS011;68459;50.836;19.138;2023-08-12T01:45:11;11.82;;;7.00;;
74974;SDS011;68459;50.836;19.138;2023-08-12T01:48:15;11.17;;;7.27;;
74974;SDS011;68459;50.836;19.138;2023-08-12T01:51:21;10.80;;;7.68;;
74974;SDS011;68459;50.836;19.138;2023-08-12T01:54:27;12.40;;;7.40;;
74974;SDS011;68459;50.836;19.138;2023-08-12T01:57:34;13.57;;;7.65;;
74974;SDS011;68459;50.836;19.138;2023-08-12T02:00:40;12.05;;;7.47;;
74974;SDS011;68459;50.836;19.138;2023-08-12T02:03:43;10.77;;;7.63;;
74974;SDS011;68459;50.836;19.138;2023-08-12T02:06:48;11.27;;;7.20;;
74974;SDS011;68459;50.836;19.138;2023-08-12T02:09:55;11.63;;;7.50;;
74974;SDS011;68459;50.836;19.138;2023-08-12T02:12:59;11.15;;;7.72;;
74974;SDS011;68459;50.836;19.138;2023-08-12T02:16:03;12.55;;;7.72;;
74974;SDS011;68459;50.836;19.138;2023-08-12T02:19:07;11.20;;;7.20;;
74974;SDS011;68459;50.836;19.138;2023-08-12T02:22:11;11.40;;;7.40;;
74974;SDS011;68459;50.836;19.138;2023-08-12T02:25:16;11.73;;;7.63;;
74974;SDS011;68459;50.836;19.138;2023-08-12T02:28:20;12.30;;;7.47;;
74974;SDS011;68459;50.836;19.138;2023-08-12T02:31:25;12.48;;;7.60;;
74974;SDS011;68459;50.836;19.138;2023-08-12T02:34:28;12.00;;;8.05;;
74974;SDS011;68459;50.836;19.138;2023-08-12T02:37:33;9.27;;;7.38;;
74974;SDS011;68459;50.836;19.138;2023-08-12T02:40:38;10.27;;;7.77;;
74974;SDS011;68459;50.836;19.138;2023-08-12T02:43:42;11.48;;;6.95;;
74974;SDS011;68459;50.836;19.138;2023-08-12T02:46:46;11.70;;;7.65;;
74974;SDS011;68459;50.836;19.138;2023-08-12T02:49:50;12.13;;;7.43;;
74974;SDS011;68459;50.836;19.138;2023-08-12T02:52:55;15.23;;;8.07;;
74974;SDS011;68459;50.836;19.138;2023-08-12T02:56:01;13.00;;;7.78;;
74974;SDS011;68459;50.836;19.138;2023-08-12T02:59:04;12.73;;;7.03;;
74974;SDS011;68459;50.836;19.138;2023-08-12T03:02:09;11.20;;;7.40;;
74974;SDS011;68459;50.836;19.138;2023-08-12T03:05:12;13.25;;;7.63;;
74974;SDS011;68459;50.836;19.138;2023-08-12T03:08:17;10.00;;;7.10;;
74974;SDS011;68459;50.836;19.138;2023-08-12T03:11:24;10.03;;;6.77;;
74974;SDS011;68459;50.836;19.138;2023-08-12T03:14:31;11.85;;;7.28;;
74974;SDS011;68459;50.836;19.138;2023-08-12T03:17:36;9.45;;;6.95;;
74974;SDS011;68459;50.836;19.138;2023-08-12T03:20:42;11.13;;;7.10;;
74974;SDS011;68459;50.836;19.138;2023-08-12T03:23:46;10.27;;;7.25;;
74974;SDS011;68459;50.836;19.138;2023-08-12T03:26:51;12.20;;;7.45;;
74974;SDS011;68459;50.836;19.138;2023-08-12T03:29:55;12.10;;;7.82;;
74974;SDS011;68459;50.836;19.138;2023-08-12T03:33:00;12.88;;;7.40;;
74974;SDS011;68459;50.836;19.138;2023-08-12T03:36:07;14.35;;;8.07;;
74974;SDS011;68459;50.836;19.138;2023-08-12T03:39:11;12.70;;;8.60;;
74974;SDS011;68459;50.836;19.138;2023-08-12T03:42:17;11.83;;;7.63;;
74974;SDS011;68459;50.836;19.138;2023-08-12T03:45:23;13.40;;;7.38;;
74974;SDS011;68459;50.836;19.138;2023-08-12T03:48:27;10.02;;;7.75;;
74974;SDS011;68459;50.836;19.138;2023-08-12T03:51:32;12.47;;;7.23;;
74974;SDS011;68459;50.836;19.138;2023-08-12T03:54:36;12.15;;;7.10;;
74974;SDS011;68459;50.836;19.138;2023-08-12T03:57:42;12.10;;;8.57;;
74974;SDS011;68459;50.836;19.138;2023-08-12T04:00:46;11.07;;;7.75;;
74974;SDS011;68459;50.836;19.138;2023-08-12T04:03:52;9.07;;;7.35;;
74974;SDS011;68459;50.836;19.138;2023-08-12T04:06:57;11.32;;;7.55;;
74974;SDS011;68459;50.836;19.138;2023-08-12T04:10:01;12.77;;;7.60;;
74974;SDS011;68459;50.836;19.138;2023-08-12T04:13:06;10.20;;;7.47;;
74974;SDS011;68459;50.836;19.138;2023-08-12T04:16:10;10.50;;;7.70;;
74974;SDS011;68459;50.836;19.138;2023-08-12T04:19:14;11.68;;;7.63;;
74974;SDS011;68459;50.836;19.138;2023-08-12T04:22:18;10.17;;;7.33;;
74974;SDS011;68459;50.836;19.138;2023-08-12T04:25:22;11.68;;;7.28;;
74974;SDS011;68459;50.836;19.138;2023-08-12T04:28:28;11.00;;;6.78;;
74974;SDS011;68459;50.836;19.138;2023-08-12T04:31:32;9.73;;;7.10;;
74974;SDS011;68459;50.836;19.138;2023-08-12T04:34:37;11.82;;;7.25;;
74974;SDS011;68459;50.836;19.138;2023-08-12T04:37:41;14.07;;;7.63;;
74974;SDS011;68459;50.836;19.138;2023-08-12T04:40:46;13.25;;;6.90;;
74974;SDS011;68459;50.836;19.138;2023-08-12T04:43:51;11.30;;;7.20;;
74974;SDS011;68459;50.836;19.138;2023-08-12T04:46:57;10.07;;;6.93;;
74974;SDS011;68459;50.836;19.138;2023-08-12T04:50:02;10.13;;;6.85;;
74974;SDS011;68459;50.836;19.138;2023-08-12T04:53:07;11.40;;;7.47;;
74974;SDS011;68459;50.836;19.138;2023-08-12T04:56:11;9.98;;;6.55;;
74974;SDS011;68459;50.836;19.138;2023-08-12T04:59:17;9.05;;;6.60;;
74974;SDS011;68459;50.836;19.138;2023-08-12T05:02:21;10.35;;;6.97;;
74974;SDS011;68459;50.836;19.138;2023-08-12T05:05:27;11.63;;;7.20;;
74974;SDS011;68459;50.836;19.138;2023-08-12T05:08:31;13.82;;;7.97;;
74974;SDS011;68459;50.836;19.138;2023-08-12T05:11:35;11.57;;;7.60;;
74974;SDS011;68459;50.836;19.138;2023-08-12T05:14:41;13.17;;;7.83;;
74974;SDS011;68459;50.836;19.138;2023-08-12T05:17:45;14.93;;;8.27;;
74974;SDS011;68459;50.836;19.138;2023-08-12T05:20:53;12.05;;;7.40;;
74974;SDS011;68459;50.836;19.138;2023-08-12T05:23:57;11.47;;;8.10;;
74974;SDS011;68459;50.836;19.138;2023-08-12T05:27:02;12.90;;;8.00;;
74974;SDS011;68459;50.836;19.138;2023-08-12T05:30:09;14.23;;;7.68;;
74974;SDS011;68459;50.836;19.138;2023-08-12T05:33:14;12.00;;;7.05;;
74974;SDS011;68459;50.836;19.138;2023-08-12T05:36:18;12.15;;;7.05;;
74974;SDS011;68459;50.836;19.138;2023-08-12T05:39:22;13.60;;;7.43;;
74974;SDS011;68459;50.836;19.138;2023-08-12T05:42:26;11.35;;;7.15;;
74974;SDS011;68459;50.836;19.138;2023-08-12T05:45:32;9.83;;;7.30;;
74974;SDS011;68459;50.836;19.138;2023-08-12T05:48:36;9.98;;;6.78;;
74974;SDS011;68459;50.836;19.138;2023-08-12T05:51:40;12.50;;;6.95;;
74974;SDS011;68459;50.836;19.138;2023-08-12T05:54:45;11.60;;;6.83;;
74974;SDS011;68459;50.836;19.138;2023-08-12T05:57:48;11.73;;;6.90;;
74974;SDS011;68459;50.836;19.138;2023-08-12T06:00:54;13.13;;;6.85;;
74974;SDS011;68459;50.836;19.138;2023-08-12T06:03:58;12.10;;;6.35;;
74974;SDS011;68459;50.836;19.138;2023-08-12T06:07:02;10.35;;;6.22;;
74974;SDS011;68459;50.836;19.138;2023-08-12T06:10:07;13.48;;;6.70;;
74974;SDS011;68459;50.836;19.138;2023-08-12T06:13:11;9.05;;;6.40;;
74974;SDS011;68459;50.836;19.138;2023-08-12T06:16:17;11.77;;;6.90;;
74974;SDS011;68459;50.836;19.138;2023-08-12T06:19:20;13.63;;;7.07;;
74974;SDS011;68459;50.836;19.138;2023-08-12T06:22:24;15.25;;;7.32;;
74974;SDS011;68459;50.836;19.138;2023-08-12T06:25:28;14.50;;;7.10;;
74974;SDS011;68459;50.836;19.138;2023-08-12T06:28:32;15.45;;;7.68;;
74974;SDS011;68459;50.836;19.138;2023-08-12T06:31:37;13.18;;;7.97;;
74974;SDS011;68459;50.836;19.138;2023-08-12T06:34:41;15.80;;;8.38;;
74974;SDS011;68459;50.836;19.138;2023-08-12T06:37:45;17.40;;;8.48;;
74974;SDS011;68459;50.836;19.138;2023-08-12T06:40:49;16.42;;;7.82;;
74974;SDS011;68459;50.836;19.138;2023-08-12T06:43:53;17.90;;;7.57;;
74974;SDS011;68459;50.836;19.138;2023-08-12T06:46:58;12.03;;;6.47;;
74974;SDS011;68459;50.836;19.138;2023-08-12T06:50:03;16.52;;;6.28;;
74974;SDS011;68459;50.836;19.138;2023-08-12T06:53:07;13.75;;;5.70;;
74974;SDS011;68459;50.836;19.138;2023-08-12T06:56:11;10.13;;;5.37;;
74974;SDS011;68459;50.836;19.138;2023-08-12T06:59:15;10.23;;;5.15;;
74974;SDS011;68459;50.836;19.138;2023-08-12T07:02:20;7.90;;;4.25;;
74974;SDS011;68459;50.836;19.138;2023-08-12T07:05:25;10.25;;;4.45;;
74974;SDS011;68459;50.836;19.138;2023-08-12T07:08:29;11.70;;;5.38;;
74974;SDS011;68459;50.836;19.138;2023-08-12T07:11:34;11.52;;;4.70;;
74974;SDS011;68459;50.836;19.138;2023-08-12T07:14:38;9.32;;;4.50;;
74974;SDS011;68459;50.836;19.138;2023-08-12T07:17:43;10.13;;;4.37;;
74974;SDS011;68459;50.836;19.138;2023-08-12T07:20:47;13.75;;;5.15;;
74974;SDS011;68459;50.836;19.138;2023-08-12T07:23:51;20.17;;;6.57;;
74974;SDS011;68459;50.836;19.138;2023-08-12T07:27:05;9.97;;;5.20;;
74974;SDS011;68459;50.836;19.138;2023-08-12T07:30:09;17.20;;;5.68;;
74974;SDS011;68459;50.836;19.138;2023-08-12T07:33:15;13.50;;;5.90;;
74974;SDS011;68459;50.836;19.138;2023-08-12T07:36:19;17.80;;;6.25;;
74974;SDS011;68459;50.836;19.138;2023-08-12T07:39:26;12.55;;;4.97;;
74974;SDS011;68459;50.836;19.138;2023-08-12T07:42:29;10.10;;;4.50;;
74974;SDS011;68459;50.836;19.138;2023-08-12T07:45:34;8.50;;;4.38;;
74974;SDS011;68459;50.836;19.138;2023-08-12T07:48:39;7.37;;;4.33;;
74974;SDS011;68459;50.836;19.138;2023-08-12T07:51:42;13.27;;;4.22;;
74974;SDS011;68459;50.836;19.138;2023-08-12T07:54:46;13.18;;;6.93;;
74974;SDS011;68459;50.836;19.138;2023-08-12T07:57:50;12.02;;;4.38;;
74974;SDS011;68459;50.836;19.138;2023-08-12T08:00:54;10.38;;;4.30;;
74974;SDS011;68459;50.836;19.138;2023-08-12T08:04:00;7.55;;;4.03;;
74974;SDS011;68459;50.836;19.138;2023-08-12T08:07:04;7.25;;;2.97;;
74974;SDS011;68459;50.836;19.138;2023-08-12T08:10:08;3.53;;;2.00;;
74974;SDS011;68459;50.836;19.138;2023-08-12T08:13:12;6.25;;;3.55;;
74974;SDS011;68459;50.836;19.138;2023-08-12T08:16:17;4.38;;;2.13;;
74974;SDS011;68459;50.836;19.138;2023-08-12T08:19:22;3.67;;;2.22;;
74974;SDS011;68459;50.836;19.138;2023-08-12T08:22:31;2.90;;;2.05;;
74974;SDS011;68459;50.836;19.138;2023-08-12T08:25:35;3.03;;;2.20;;
74974;SDS011;68459;50.836;19.138;2023-08-12T08:28:39;3.47;;;2.17;;
74974;SDS011;68459;50.836;19.138;2023-08-12T08:31:43;14.37;;;7.53;;
74974;SDS011;68459;50.836;19.138;2023-08-12T08:34:48;3.70;;;2.10;;
74974;SDS011;68459;50.836;19.138;2023-08-12T08:37:53;5.65;;;2.20;;
74974;SDS011;68459;50.836;19.138;2023-08-12T08:41:01;3.45;;;2.03;;
74974;SDS011;68459;50.836;19.138;2023-08-12T08:44:09;4.97;;;2.20;;
74974;SDS011;68459;50.836;19.138;2023-08-12T08:47:14;3.67;;;2.08;;
74974;SDS011;68459;50.836;19.138;2023-08-12T08:50:22;13.98;;;9.95;;
74974;SDS011;68459;50.836;19.138;2023-08-12T08:53:26;3.35;;;2.13;;
74974;SDS011;68459;50.836;19.138;2023-08-12T08:56:30;5.80;;;2.40;;
74974;SDS011;68459;50.836;19.138;2023-08-12T08:59:38;4.38;;;2.22;;
74974;SDS011;68459;50.836;19.138;2023-08-12T09:02:42;3.67;;;1.98;;
74974;SDS011;68459;50.836;19.138;2023-08-12T09:05:49;6.68;;;4.40;;
74974;SDS011;68459;50.836;19.138;2023-08-12T09:08:55;4.37;;;2.60;;
74974;SDS011;68459;50.836;19.138;2023-08-12T09:11:59;3.97;;;2.00;;
74974;SDS011;68459;50.836;19.138;2023-08-12T09:15:03;3.20;;;1.50;;
74974;SDS011;68459;50.836;19.138;2023-08-12T09:18:09;7.18;;;1.90;;
74974;SDS011;68459;50.836;19.138;2023-08-12T09:21:14;3.70;;;1.83;;
74974;SDS011;68459;50.836;19.138;2023-08-12T09:24:23;3.65;;;1.60;;
74974;SDS011;68459;50.836;19.138;2023-08-12T09:27:27;3.33;;;1.60;;
74974;SDS011;68459;50.836;19.138;2023-08-12T09:30:34;2.75;;;1.58;;
74974;SDS011;68459;50.836;19.138;2023-08-12T09:33:38;2.30;;;1.50;;
74974;SDS011;68459;50.836;19.138;2023-08-12T09:36:44;3.25;;;1.60;;
74974;SDS011;68459;50.836;19.138;2023-08-12T09:39:48;4.72;;;1.85;;
74974;SDS011;68459;50.836;19.138;2023-08-12T09:42:52;3.42;;;1.63;;
74974;SDS011;68459;50.836;19.138;2023-08-12T09:45:57;3.63;;;1.90;;
74974;SDS011;68459;50.836;19.138;2023-08-12T09:49:01;3.58;;;1.98;;
74974;SDS011;68459;50.836;19.138;2023-08-12T09:52:08;3.33;;;2.05;;
74974;SDS011;68459;50.836;19.138;2023-08-12T09:55:12;4.93;;;1.95;;
74974;SDS011;68459;50.836;19.138;2023-08-12T09:58:20;3.73;;;1.73;;
74974;SDS011;68459;50.836;19.138;2023-08-12T10:01:27;2.38;;;1.60;;
74974;SDS011;68459;50.836;19.138;2023-08-12T10:04:33;4.00;;;1.98;;
74974;SDS011;68459;50.836;19.138;2023-08-12T10:07:44;3.67;;;1.40;;
74974;SDS011;68459;50.836;19.138;2023-08-12T10:10:49;3.33;;;1.50;;
74974;SDS011;68459;50.836;19.138;2023-08-12T10:14:12;4.27;;;1.80;;
74974;SDS011;68459;50.836;19.138;2023-08-12T10:17:18;6.57;;;4.97;;
74974;SDS011;68459;50.836;19.138;2023-08-12T10:20:43;3.72;;;2.00;;
74974;SDS011;68459;50.836;19.138;2023-08-12T10:23:48;3.20;;;1.75;;
74974;SDS011;68459;50.836;19.138;2023-08-12T10:26:53;3.40;;;1.50;;
74974;SDS011;68459;50.836;19.138;2023-08-12T10:29:58;2.92;;;1.48;;
74974;SDS011;68459;50.836;19.138;2023-08-12T10:33:02;3.60;;;1.75;;
74974;SDS011;68459;50.836;19.138;2023-08-12T10:36:08;3.05;;;1.80;;
74974;SDS011;68459;50.836;19.138;2023-08-12T10:39:14;2.90;;;1.50;;
74974;SDS011;68459;50.836;19.138;2023-08-12T10:45:46;6.10;;;1.98;;
74974;SDS011;68459;50.836;19.138;2023-08-12T10:49:02;3.00;;;1.70;;
74974;SDS011;68459;50.836;19.138;2023-08-12T10:52:16;3.33;;;1.77;;
74974;SDS011;68459;50.836;19.138;2023-08-12T10:55:32;4.30;;;1.80;;
74974;SDS011;68459;50.836;19.138;2023-08-12T10:58:40;2.58;;;1.55;;
74974;SDS011;68459;50.836;19.138;2023-08-12T11:01:49;2.60;;;1.73;;
74974;SDS011;68459;50.836;19.138;2023-08-12T11:04:56;3.30;;;1.98;;
74974;SDS011;68459;50.836;19.138;2023-08-12T11:08:04;3.25;;;1.77;;
74974;SDS011;68459;50.836;19.138;2023-08-12T11:11:18;4.17;;;1.50;;
74974;SDS011;68459;50.836;19.138;2023-08-12T11:14:24;2.28;;;1.15;;
74974;SDS011;68459;50.836;19.138;2023-08-12T11:17:34;3.40;;;1.55;;
74974;SDS011;68459;50.836;19.138;2023-08-12T11:20:40;4.10;;;1.60;;
74974;SDS011;68459;50.836;19.138;2023-08-12T11:23:44;2.67;;;1.25;;
74974;SDS011;68459;50.836;19.138;2023-08-12T11:26:51;2.23;;;1.40;;
74974;SDS011;68459;50.836;19.138;2023-08-12T11:29:55;2.25;;;1.30;;
74974;SDS011;68459;50.836;19.138;2023-08-12T11:32:59;2.45;;;1.35;;
74974;SDS011;68459;50.836;19.138;2023-08-12T11:36:05;3.08;;;1.23;;
74974;SDS011;68459;50.836;19.138;2023-08-12T11:39:09;2.70;;;1.60;;
74974;SDS011;68459;50.836;19.138;2023-08-12T11:42:15;3.13;;;1.50;;
74974;SDS011;68459;50.836;19.138;2023-08-12T11:45:19;2.75;;;1.65;;
74974;SDS011;68459;50.836;19.138;2023-08-12T11:48:25;3.08;;;1.70;;
74974;SDS011;68459;50.836;19.138;2023-08-12T11:51:30;2.75;;;1.90;;
74974;SDS011;68459;50.836;19.138;2023-08-12T11:54:34;2.67;;;1.70;;
74974;SDS011;68459;50.836;19.138;2023-08-12T11:57:40;5.73;;;1.73;;
74974;SDS011;68459;50.836;19.138;2023-08-12T12:00:44;2.50;;;1.55;;
74974;SDS011;68459;50.836;19.138;2023-08-12T12:03:50;4.43;;;1.75;;
74974;SDS011;68459;50.836;19.138;2023-08-12T12:06:54;2.92;;;1.60;;
74974;SDS011;68459;50.836;19.138;2023-08-12T12:09:58;2.35;;;1.63;;
74974;SDS011;68459;50.836;19.138;2023-08-12T12:13:05;3.17;;;1.80;;
74974;SDS011;68459;50.836;19.138;2023-08-12T12:16:11;3.13;;;1.77;;
74974;SDS011;68459;50.836;19.138;2023-08-12T12:19:15;2.75;;;1.55;;
74974;SDS011;68459;50.836;19.138;2023-08-12T12:22:25;2.45;;;1.48;;
74974;SDS011;68459;50.836;19.138;2023-08-12T12:25:31;3.08;;;1.48;;
74974;SDS011;68459;50.836;19.138;2023-08-12T12:28:36;7.07;;;2.00;;
74974;SDS011;68459;50.836;19.138;2023-08-12T12:31:41;4.15;;;1.50;;
74974;SDS011;68459;50.836;19.138;2023-08-12T12:34:45;4.03;;;1.80;;
74974;SDS011;68459;50.836;19.138;2023-08-12T12:37:49;4.30;;;1.95;;
74974;SDS011;68459;50.836;19.138;2023-08-12T12:40:53;3.20;;;1.65;;
74974;SDS011;68459;50.836;19.138;2023-08-12T12:43:59;4.70;;;1.57;;
74974;SDS011;68459;50.836;19.138;2023-08-12T12:47:03;4.95;;;1.67;;
74974;SDS011;68459;50.836;19.138;2023-08-12T12:50:07;5.18;;;1.67;;
74974;SDS011;68459;50.836;19.138;2023-08-12T12:53:11;2.90;;;1.90;;
74974;SDS011;68459;50.836;19.138;2023-08-12T12:56:15;2.95;;;1.80;;
74974;SDS011;68459;50.836;19.138;2023-08-12T12:59:20;3.80;;;1.70;;
74974;SDS011;68459;50.836;19.138;2023-08-12T13:02:25;3.33;;;1.40;;
74974;SDS011;68459;50.836;19.138;2023-08-12T13:05:30;4.28;;;2.10;;
74974;SDS011;68459;50.836;19.138;2023-08-12T13:08:34;4.45;;;1.80;;
74974;SDS011;68459;50.836;19.138;2023-08-12T13:11:37;3.47;;;1.70;;
74974;SDS011;68459;50.836;19.138;2023-08-12T13:14:43;3.87;;;1.53;;
74974;SDS011;68459;50.836;19.138;2023-08-12T13:17:47;2.37;;;1.40;;
74974;SDS011;68459;50.836;19.138;2023-08-12T13:20:51;3.38;;;1.50;;
74974;SDS011;68459;50.836;19.138;2023-08-12T13:23:54;2.47;;;1.38;;
74974;SDS011;68459;50.836;19.138;2023-08-12T13:26:58;4.90;;;1.38;;
74974;SDS011;68459;50.836;19.138;2023-08-12T13:30:04;2.53;;;1.50;;
74974;SDS011;68459;50.836;19.138;2023-08-12T13:33:09;5.67;;;1.90;;
74974;SDS011;68459;50.836;19.138;2023-08-12T13:36:13;3.20;;;1.50;;
74974;SDS011;68459;50.836;19.138;2023-08-12T13:39:18;5.22;;;1.63;;
74974;SDS011;68459;50.836;19.138;2023-08-12T13:42:22;3.17;;;1.38;;
74974;SDS011;68459;50.836;19.138;2023-08-12T13:45:27;2.63;;;1.50;;
74974;SDS011;68459;50.836;19.138;2023-08-12T13:48:31;2.73;;;1.37;;
74974;SDS011;68459;50.836;19.138;2023-08-12T13:51:35;2.47;;;1.38;;
74974;SDS011;68459;50.836;19.138;2023-08-12T13:54:39;2.63;;;1.20;;
74974;SDS011;68459;50.836;19.138;2023-08-12T13:57:43;2.42;;;1.20;;
74974;SDS011;68459;50.836;19.138;2023-08-12T14:00:48;2.10;;;1.10;;
74974;SDS011;68459;50.836;19.138;2023-08-12T14:03:52;2.63;;;1.40;;
74974;SDS011;68459;50.836;19.138;2023-08-12T14:06:56;2.72;;;1.30;;
74974;SDS011;68459;50.836;19.138;2023-08-12T14:09:59;3.03;;;1.30;;
74974;SDS011;68459;50.836;19.138;2023-08-12T14:13:04;2.10;;;1.20;;
74974;SDS011;68459;50.836;19.138;2023-08-12T14:16:10;3.80;;;1.40;;
74974;SDS011;68459;50.836;19.138;2023-08-12T14:19:13;3.27;;;1.43;;
74974;SDS011;68459;50.836;19.138;2023-08-12T14:22:19;2.28;;;1.48;;
74974;SDS011;68459;50.836;19.138;2023-08-12T14:25:23;3.92;;;1.35;;
74974;SDS011;68459;50.836;19.138;2023-08-12T14:28:27;3.63;;;1.50;;
74974;SDS011;68459;50.836;19.138;2023-08-12T14:31:32;2.57;;;1.33;;
74974;SDS011;68459;50.836;19.138;2023-08-12T14:34:36;3.60;;;1.40;;
74974;SDS011;68459;50.836;19.138;2023-08-12T14:37:40;3.17;;;1.25;;
74974;SDS011;68459;50.836;19.138;2023-08-12T14:40:46;2.13;;;1.30;;
74974;SDS011;68459;50.836;19.138;2023-08-12T14:43:51;2.83;;;1.50;;
74974;SDS011;68459;50.836;19.138;2023-08-12T14:46:56;2.20;;;1.30;;
74974;SDS011;68459;50.836;19.138;2023-08-12T14:49:59;2.57;;;1.47;;
74974;SDS011;68459;50.836;19.138;2023-08-12T14:53:04;1.88;;;1.20;;
74974;SDS011;68459;50.836;19.138;2023-08-12T14:56:07;2.70;;;1.42;;
74974;SDS011;68459;50.836;19.138;2023-08-12T14:59:11;4.63;;;1.50;;
74974;SDS011;68459;50.836;19.138;2023-08-12T15:02:16;2.60;;;1.53;;
74974;SDS011;68459;50.836;19.138;2023-08-12T15:05:20;4.43;;;1.50;;
74974;SDS011;68459;50.836;19.138;2023-08-12T15:08:24;2.70;;;1.50;;
74974;SDS011;68459;50.836;19.138;2023-08-12T15:11:28;4.25;;;1.60;;
74974;SDS011;68459;50.836;19.138;2023-08-12T15:14:31;2.63;;;1.50;;
74974;SDS011;68459;50.836;19.138;2023-08-12T15:17:36;2.17;;;1.60;;
74974;SDS011;68459;50.836;19.138;2023-08-12T15:20:40;3.43;;;1.40;;
74974;SDS011;68459;50.836;19.138;2023-08-12T15:23:44;2.03;;;1.50;;
74974;SDS011;68459;50.836;19.138;2023-08-12T15:26:48;3.60;;;1.42;;
74974;SDS011;68459;50.836;19.138;2023-08-12T15:29:52;3.35;;;1.60;;
74974;SDS011;68459;50.836;19.138;2023-08-12T15:32:57;3.40;;;1.60;;
74974;SDS011;68459;50.836;19.138;2023-08-12T15:36:01;2.73;;;1.30;;
74974;SDS011;68459;50.836;19.138;2023-08-12T15:39:05;2.97;;;2.00;;
74974;SDS011;68459;50.836;19.138;2023-08-12T15:42:10;3.90;;;1.88;;
74974;SDS011;68459;50.836;19.138;2023-08-12T15:45:13;2.28;;;1.58;;
74974;SDS011;68459;50.836;19.138;2023-08-12T15:48:19;5.70;;;1.70;;
74974;SDS011;68459;50.836;19.138;2023-08-12T15:51:23;2.73;;;1.80;;
74974;SDS011;68459;50.836;19.138;2023-08-12T15:54:26;2.50;;;1.60;;
74974;SDS011;68459;50.836;19.138;2023-08-12T15:57:30;3.22;;;1.40;;
74974;SDS011;68459;50.836;19.138;2023-08-12T16:00:35;2.92;;;1.58;;
74974;SDS011;68459;50.836;19.138;2023-08-12T16:03:40;3.73;;;1.60;;
74974;SDS011;68459;50.836;19.138;2023-08-12T16:06:44;2.20;;;1.50;;
74974;SDS011;68459;50.836;19.138;2023-08-12T16:09:48;5.38;;;1.60;;
74974;SDS011;68459;50.836;19.138;2023-08-12T16:12:52;2.72;;;1.50;;
74974;SDS011;68459;50.836;19.138;2023-08-12T16:15:56;3.03;;;1.48;;
74974;SDS011;68459;50.836;19.138;2023-08-12T16:19:01;4.23;;;1.80;;
74974;SDS011;68459;50.836;19.138;2023-08-12T16:22:06;3.43;;;1.47;;
74974;SDS011;68459;50.836;19.138;2023-08-12T16:25:10;3.00;;;1.40;;
74974;SDS011;68459;50.836;19.138;2023-08-12T16:28:14;2.92;;;1.30;;
74974;SDS011;68459;50.836;19.138;2023-08-12T16:31:18;2.95;;;1.42;;
74974;SDS011;68459;50.836;19.138;2023-08-12T16:34:24;4.00;;;1.60;;
74974;SDS011;68459;50.836;19.138;2023-08-12T16:37:28;3.67;;;1.60;;
74974;SDS011;68459;50.836;19.138;2023-08-12T16:40:31;3.20;;;1.52;;
74974;SDS011;68459;50.836;19.138;2023-08-12T16:43:35;2.17;;;1.55;;
74974;SDS011;68459;50.836;19.138;2023-08-12T16:46:39;3.95;;;1.80;;
74974;SDS011;68459;50.836;19.138;2023-08-12T16:49:44;2.63;;;1.60;;
74974;SDS011;68459;50.836;19.138;2023-08-12T16:52:48;4.47;;;1.57;;
74974;SDS011;68459;50.836;19.138;2023-08-12T16:55:52;3.15;;;1.40;;
74974;SDS011;68459;50.836;19.138;2023-08-12T16:58:56;3.92;;;1.88;;
74974;SDS011;68459;50.836;19.138;2023-08-12T17:02:00;2.28;;;1.77;;
74974;SDS011;68459;50.836;19.138;2023-08-12T17:05:05;3.93;;;1.97;;
74974;SDS011;68459;50.836;19.138;2023-08-12T17:08:10;2.27;;;1.60;;
74974;SDS011;68459;50.836;19.138;2023-08-12T17:11:15;5.30;;;1.90;;
74974;SDS011;68459;50.836;19.138;2023-08-12T17:14:19;3.90;;;2.13;;
74974;SDS011;68459;50.836;19.138;2023-08-12T17:17:23;3.55;;;1.77;;
74974;SDS011;68459;50.836;19.138;2023-08-12T17:20:28;3.53;;;1.57;;
74974;SDS011;68459;50.836;19.138;2023-08-12T17:23:32;2.80;;;1.70;;
74974;SDS011;68459;50.836;19.138;2023-08-12T17:26:36;4.28;;;2.35;;
74974;SDS011;68459;50.836;19.138;2023-08-12T17:29:40;3.10;;;1.75;;
74974;SDS011;68459;50.836;19.138;2023-08-12T17:32:43;3.30;;;1.80;;
74974;SDS011;68459;50.836;19.138;2023-08-12T17:35:48;4.63;;;2.00;;
74974;SDS011;68459;50.836;19.138;2023-08-12T17:38:52;3.57;;;2.10;;
74974;SDS011;68459;50.836;19.138;2023-08-12T17:41:56;3.47;;;2.00;;
74974;SDS011;68459;50.836;19.138;2023-08-12T17:45:00;5.30;;;2.10;;
74974;SDS011;68459;50.836;19.138;2023-08-12T17:48:04;3.92;;;1.65;;
74974;SDS011;68459;50.836;19.138;2023-08-12T17:51:10;4.73;;;2.13;;
74974;SDS011;68459;50.836;19.138;2023-08-12T17:54:17;6.43;;;2.17;;
74974;SDS011;68459;50.836;19.138;2023-08-12T17:57:20;5.07;;;2.40;;
74974;SDS011;68459;50.836;19.138;2023-08-12T18:00:24;5.82;;;2.15;;
74974;SDS011;68459;50.836;19.138;2023-08-12T18:03:28;4.75;;;2.63;;
74974;SDS011;68459;50.836;19.138;2023-08-12T18:06:34;4.77;;;2.83;;
74974;SDS011;68459;50.836;19.138;2023-08-12T18:09:38;4.07;;;2.45;;
74974;SDS011;68459;50.836;19.138;2023-08-12T18:12:42;4.38;;;2.45;;
74974;SDS011;68459;50.836;19.138;2023-08-12T18:15:45;4.78;;;2.72;;